Time;durP1;ratioP1;P1;durP2;ratioP2;P2;SDS_P1;SDS_P2;PMS_P1;PMS_P2;Temp;Humidity;BMP_temperature;BMP_pressure;BME280_temperature;BME280_humidity;BME280_pressure;Samples;Min_cycle;Max_cycle;Signal;HPM_P1;HPM_P2
2022/06/26 00:01:09;;;;;;;8.60;4.17;;;;;;;20.79;58.68;100408.77;1606688;89;21103;-64
2022/06/26 00:03:37;;;;;;;8.08;4.60;;;;;;;20.77;58.79;100402.62;1606785;89;21160;-63
2022/06/26 00:06:07;;;;;;;6.50;4.28;;;;;;;20.74;58.96;100409.27;1606957;87;21148;-63
2022/06/26 00:08:36;;;;;;;7.62;4.80;;;;;;;20.73;59.06;100414.55;1617699;86;21465;-63
2022/06/26 00:11:06;;;;;;;8.38;5.10;;;;;;;20.71;59.10;100404.23;1667095;85;21076;-63
2022/06/26 00:13:35;;;;;;;8.40;4.85;;;;;;;20.74;59.09;100412.05;1666870;86;21045;-64
2022/06/26 00:16:06;;;;;;;7.03;4.72;;;;;;;20.74;59.07;100412.89;1666884;86;21077;-64
2022/06/26 00:18:37;;;;;;;7.60;4.58;;;;;;;20.74;59.13;100417.63;1666782;85;21084;-63
2022/06/26 00:21:06;;;;;;;12.37;4.85;;;;;;;20.75;59.22;100427.66;1666984;85;21546;-65
2022/06/26 00:23:35;;;;;;;8.63;5.03;;;;;;;20.76;59.12;100424.61;1665390;85;21073;-62
2022/06/26 00:26:04;;;;;;;8.85;4.78;;;;;;;20.80;59.07;100424.92;1662510;86;21033;-63
2022/06/26 00:28:34;;;;;;;9.50;4.83;;;;;;;20.83;59.01;100425.81;1662309;86;21204;-63
2022/06/26 00:31:03;;;;;;;8.25;5.00;;;;;;;20.84;59.03;100424.16;1662255;85;21062;-64
2022/06/26 00:33:32;;;;;;;6.95;4.83;;;;;;;20.85;58.93;100423.05;1662292;85;21042;-63
2022/06/26 00:36:01;;;;;;;6.85;4.83;;;;;;;20.86;58.87;100428.91;1662285;86;21069;-63
2022/06/26 00:38:30;;;;;;;7.00;4.95;;;;;;;20.85;58.95;100430.56;1662287;85;21058;-64
2022/06/26 00:40:59;;;;;;;6.03;4.60;;;;;;;20.85;58.93;100425.84;1662332;86;21077;-63
2022/06/26 00:43:28;;;;;;;7.53;5.33;;;;;;;20.85;58.95;100424.45;1662347;85;21061;-64
2022/06/26 00:45:58;;;;;;;9.05;5.28;;;;;;;20.86;58.91;100427.52;1662205;86;21168;-64
2022/06/26 00:48:28;;;;;;;7.80;4.33;;;;;;;20.87;59.00;100430.59;1662462;85;21074;-64
2022/06/26 00:50:57;;;;;;;7.45;4.28;;;;;;;20.88;59.00;100432.27;1662317;85;21061;-63
2022/06/26 00:53:26;;;;;;;7.58;4.50;;;;;;;20.86;59.01;100429.47;1662269;86;21572;-63
2022/06/26 00:55:54;;;;;;;8.80;4.75;;;;;;;20.85;59.17;100430.56;1662332;85;21042;-64
2022/06/26 00:58:23;;;;;;;6.22;4.50;;;;;;;20.84;59.49;100431.13;1662531;86;21474;-62
2022/06/26 01:00:53;;;;;;;9.23;5.10;;;;;;;20.80;59.56;100431.88;1662401;86;21038;-63
2022/06/26 01:03:22;;;;;;;5.45;4.40;;;;;;;20.79;59.55;100432.98;1662168;86;21065;-63
2022/06/26 01:05:51;;;;;;;6.12;4.55;;;;;;;20.80;59.70;100432.72;1662459;86;21045;-64
2022/06/26 01:08:20;;;;;;;8.78;4.50;;;;;;;20.81;59.79;100439.16;1662242;85;21084;-62
2022/06/26 01:10:49;;;;;;;9.00;4.87;;;;;;;20.83;59.76;100429.99;1662543;86;21748;-64
2022/06/26 01:13:19;;;;;;;6.97;4.35;;;;;;;20.85;59.80;100430.02;1662459;86;21077;-63
2022/06/26 01:15:48;;;;;;;6.60;4.00;;;;;;;20.85;59.88;100430.02;1662573;86;21058;-63
2022/06/26 01:18:17;;;;;;;6.70;4.30;;;;;;;20.84;60.14;100434.45;1662309;85;21078;-64
2022/06/26 01:20:54;;;;;;;9.60;4.50;;;;;;;20.80;60.30;100436.06;1662507;85;21077;-63
2022/06/26 01:23:17;;;;;;;6.50;4.55;;;;;;;20.78;60.38;100439.66;1661999;85;21105;-64
2022/06/26 01:25:48;;;;;;;5.95;4.17;;;;;;;20.77;60.60;100442.16;1662427;86;21544;-65
2022/06/26 01:28:17;;;;;;;6.97;4.22;;;;;;;20.73;60.89;100442.39;1662283;86;21066;-63
2022/06/26 01:30:46;;;;;;;6.75;4.33;;;;;;;20.68;61.01;100440.41;1662235;86;21077;-62
2022/06/26 01:33:16;;;;;;;7.10;4.53;;;;;;;20.69;61.02;100444.87;1662326;86;21061;-64
2022/06/26 01:35:45;;;;;;;8.63;4.12;;;;;;;20.72;61.01;100446.28;1662286;86;21323;-64
2022/06/26 01:38:21;;;;;;;8.80;4.30;;;;;;;20.72;61.04;100440.72;1662362;86;21828;-63
2022/06/26 01:40:52;;;;;;;6.53;4.45;;;;;;;20.72;61.03;100440.72;1659465;86;21502;-63
2022/06/26 01:43:28;;;;;;;6.17;4.33;;;;;;;20.71;61.14;100439.88;1662335;86;21009;-63
2022/06/26 01:45:58;;;;;;;5.78;4.28;;;;;;;20.68;61.28;100441.80;1662524;85;21450;-63
2022/06/26 01:48:30;;;;;;;6.30;4.22;;;;;;;20.64;61.40;100439.80;1662278;86;21593;-63
2022/06/26 01:51:02;;;;;;;5.90;4.25;;;;;;;20.63;61.43;100449.26;1662459;86;21041;-63
2022/06/26 01:53:34;;;;;;;5.90;4.10;;;;;;;20.62;61.51;100453.14;1662443;86;21124;-64
2022/06/26 01:56:06;;;;;;;5.05;4.10;;;;;;;20.58;61.66;100454.22;1662362;86;21013;-63
2022/06/26 01:58:37;;;;;;;4.58;3.62;;;;;;;20.56;61.77;100460.05;1662208;86;21355;-64
2022/06/26 02:01:08;;;;;;;7.67;4.30;;;;;;;20.56;61.95;100456.43;1662492;86;21074;-64
2022/06/26 02:03:38;;;;;;;5.65;4.00;;;;;;;20.56;62.16;100457.27;1662340;86;21104;-64
2022/06/26 02:06:10;;;;;;;7.47;4.10;;;;;;;20.55;62.30;100462.55;1662452;85;21042;-63
2022/06/26 02:08:41;;;;;;;7.03;4.50;;;;;;;20.54;62.38;100460.87;1662273;86;21084;-63
2022/06/26 02:13:58;;;;;;;5.17;4.15;;;;;;;20.53;62.51;100466.70;1662569;86;21105;-63
2022/06/26 02:16:30;;;;;;;6.35;4.05;;;;;;;20.54;62.56;100465.05;1662341;86;21045;-63
2022/06/26 02:19:00;;;;;;;6.35;4.30;;;;;;;20.53;62.60;100470.87;1662505;85;21082;-63
2022/06/26 02:21:31;;;;;;;6.40;4.20;;;;;;;20.51;62.67;100475.31;1662252;86;21018;-63
2022/06/26 02:24:00;;;;;;;5.42;4.10;;;;;;;20.49;62.64;100473.89;1662358;85;21037;-64
2022/06/26 02:26:30;;;;;;;6.83;4.37;;;;;;;20.46;62.65;100475.25;1662467;86;21057;-63
2022/06/26 02:28:59;;;;;;;9.43;4.00;;;;;;;20.42;62.79;100473.25;1662453;86;21042;-63
2022/06/26 02:31:30;;;;;;;5.45;4.05;;;;;;;20.43;62.91;100480.50;1662279;86;21010;-63
2022/06/26 02:33:59;;;;;;;5.22;3.80;;;;;;;20.43;62.87;100489.69;1662307;86;21152;-63
2022/06/26 02:36:29;;;;;;;6.33;4.08;;;;;;;20.43;62.69;100481.89;1662360;85;21053;-63
2022/06/26 02:38:59;;;;;;;6.95;4.45;;;;;;;20.42;62.63;100482.45;1662311;86;21434;-63
2022/06/26 02:41:27;;;;;;;6.15;3.85;;;;;;;20.44;62.34;100483.02;1662297;86;21037;-63
2022/06/26 02:43:57;;;;;;;6.72;4.20;;;;;;;20.47;62.39;100487.23;1662375;85;21058;-64
2022/06/26 02:46:28;;;;;;;8.38;4.70;;;;;;;20.49;62.13;100484.47;1662306;86;21062;-63
2022/06/26 02:48:57;;;;;;;7.87;4.20;;;;;;;20.54;61.92;100488.70;1662518;86;21061;-63
2022/06/26 02:51:26;;;;;;;8.18;4.08;;;;;;;20.58;61.71;100489.87;1662469;86;21104;-62
2022/06/26 02:53:55;;;;;;;6.42;4.28;;;;;;;20.60;61.63;100485.98;1662573;86;21468;-63
2022/06/26 02:56:24;;;;;;;6.53;3.90;;;;;;;20.61;61.44;100488.50;1662381;85;21057;-63
2022/06/26 02:58:55;;;;;;;6.70;4.00;;;;;;;20.64;61.35;100492.70;1662256;85;21121;-64
2022/06/26 03:01:24;;;;;;;4.17;3.67;;;;;;;20.67;61.29;100494.97;1662189;85;21587;-63
2022/06/26 03:03:54;;;;;;;9.53;3.75;;;;;;;20.69;61.08;100498.33;1662348;86;21177;-63
2022/06/26 03:06:25;;;;;;;5.05;3.90;;;;;;;20.70;61.04;100500.01;1662618;86;21077;-63
2022/06/26 03:08:54;;;;;;;5.47;3.77;;;;;;;20.72;61.22;100493.63;1662544;86;21043;-64
2022/06/26 03:11:23;;;;;;;7.53;4.00;;;;;;;20.72;61.16;100498.64;1662223;85;21072;-64
2022/06/26 03:13:52;;;;;;;7.05;3.83;;;;;;;20.75;61.10;100500.06;1662385;86;21070;-63
2022/06/26 03:16:21;;;;;;;7.78;4.45;;;;;;;20.77;61.08;100509.00;1662203;86;21070;-64
2022/06/26 03:18:51;;;;;;;8.25;4.00;;;;;;;20.80;60.95;100511.25;1662197;86;21074;-64
2022/06/26 03:21:20;;;;;;;7.65;3.98;;;;;;;20.85;60.85;100508.55;1662499;85;21066;-64
2022/06/26 03:24:02;;;;;;;6.37;3.87;;;;;;;20.86;60.88;100511.63;1662850;85;21062;-63
2022/06/26 03:26:35;;;;;;;5.47;3.65;;;;;;;20.88;60.87;100517.78;1666839;86;21029;-64
2022/06/26 03:29:07;;;;;;;6.97;3.95;;;;;;;20.92;60.83;100517.54;1666849;85;21046;-64
2022/06/26 03:31:36;;;;;;;6.30;4.08;;;;;;;20.96;60.63;100515.06;1666907;86;21045;-65
2022/06/26 03:34:06;;;;;;;5.67;3.60;;;;;;;20.99;60.42;100518.17;1667231;85;21053;-65
2022/06/26 03:36:34;;;;;;;12.88;4.10;;;;;;;21.02;60.61;100514.85;1667007;85;21077;-63
2022/06/26 03:39:05;;;;;;;6.03;3.80;;;;;;;21.03;60.86;100519.32;1666784;85;21499;-64
2022/06/26 03:41:36;;;;;;;6.35;3.90;;;;;;;21.05;60.80;100514.87;1667101;86;21506;-64
2022/06/26 03:44:07;;;;;;;4.72;3.90;;;;;;;21.08;60.72;100515.73;1666890;86;21030;-63
2022/06/26 03:46:38;;;;;;;5.00;3.70;;;;;;;21.08;60.67;100519.92;1666912;86;21563;-64
2022/06/26 03:49:07;;;;;;;4.78;3.72;;;;;;;21.08;60.41;100529.67;1666593;85;21041;-64
2022/06/26 03:51:39;;;;;;;5.47;3.70;;;;;;;21.09;60.30;100529.96;1666910;86;21462;-63
2022/06/26 03:54:07;;;;;;;4.08;3.40;;;;;;;21.11;60.05;100526.36;1666906;86;21457;-63
2022/06/26 03:56:37;;;;;;;5.85;3.20;;;;;;;21.11;59.56;100529.98;1666948;86;21088;-63
2022/06/26 03:59:05;;;;;;;5.22;3.62;;;;;;;21.13;59.45;100529.72;1666813;85;21508;-64
2022/06/26 04:01:38;;;;;;;4.65;3.45;;;;;;;21.17;59.41;100533.11;1666970;85;21477;-63
2022/06/26 04:04:07;;;;;;;7.65;3.75;;;;;;;21.23;59.34;100530.40;1667044;86;21058;-62
2022/06/26 04:06:37;;;;;;;4.67;3.75;;;;;;;21.26;59.11;100528.48;1666827;86;21145;-65
2022/06/26 04:09:09;;;;;;;6.62;4.15;;;;;;;21.29;58.98;100527.94;1666871;86;21454;-63
2022/06/26 04:11:38;;;;;;;7.67;4.00;;;;;;;21.32;59.11;100522.68;1666951;86;21500;-63
2022/06/26 04:14:07;;;;;;;8.30;3.92;;;;;;;21.34;59.09;100523.81;1666793;86;21141;-64
2022/06/26 04:16:36;;;;;;;6.70;4.10;;;;;;;21.38;58.91;100526.35;1666833;86;21088;-65
2022/06/26 04:19:06;;;;;;;6.65;3.92;;;;;;;21.41;58.81;100526.66;1667004;86;21053;-65
2022/06/26 04:21:34;;;;;;;4.20;3.70;;;;;;;21.47;58.52;100522.00;1666819;86;21077;-64
2022/06/26 04:24:06;;;;;;;5.65;3.80;;;;;;;21.51;58.38;100532.34;1666684;85;21010;-63
2022/06/26 04:26:36;;;;;;;4.90;3.60;;;;;;;21.56;58.28;100533.50;1666666;86;21061;-64
2022/06/26 04:29:07;;;;;;;5.33;3.87;;;;;;;21.60;58.07;100527.67;1666874;85;21109;-63
2022/06/26 04:31:37;;;;;;;6.60;3.95;;;;;;;21.62;58.23;100529.08;1667060;85;21041;-64
2022/06/26 04:34:06;;;;;;;6.03;3.98;;;;;;;21.62;58.38;100531.87;1666886;85;21105;-64
2022/06/26 04:36:37;;;;;;;5.58;3.62;;;;;;;21.64;58.63;100531.05;1666950;86;21096;-64
2022/06/26 04:39:06;;;;;;;5.55;3.35;;;;;;;21.67;58.57;100526.33;1666759;86;21069;-63
2022/06/26 04:41:36;;;;;;;4.28;3.52;;;;;;;21.70;58.10;100524.40;1667035;86;21493;-62
2022/06/26 04:44:06;;;;;;;5.45;3.70;;;;;;;21.75;57.78;100527.22;1666830;85;21029;-63
2022/06/26 04:46:36;;;;;;;6.10;4.10;;;;;;;21.82;57.55;100538.98;1666834;86;21038;-64
2022/06/26 04:49:06;;;;;;;5.67;3.60;;;;;;;21.89;57.47;100532.33;1661009;85;21057;-63
2022/06/26 04:51:35;;;;;;;4.50;3.62;;;;;;;21.96;57.36;100535.72;1666802;86;21088;-63
2022/06/26 04:54:09;;;;;;;9.03;4.25;;;;;;;22.01;57.05;100530.17;1666318;86;21065;-64
2022/06/26 04:56:40;;;;;;;5.33;3.95;;;;;;;22.10;56.82;100529.98;1667108;86;21073;-64
2022/06/26 04:59:09;;;;;;;5.83;3.47;;;;;;;22.25;56.63;100536.22;1666800;86;21002;-64
2022/06/26 05:01:38;;;;;;;5.03;3.60;;;;;;;22.45;55.98;100530.17;1666966;86;21509;-64
2022/06/26 05:04:16;;;;;;;5.08;3.90;;;;;;;22.69;55.36;100535.28;1666838;85;21065;-63
2022/06/26 05:06:48;;;;;;;7.03;3.65;;;;;;;22.98;54.72;100540.72;1667146;85;21116;-63
2022/06/26 05:09:22;;;;;;;7.85;4.22;;;;;;;23.33;53.74;100541.88;1666844;85;21002;-62
2022/06/26 05:11:52;;;;;;;5.92;3.72;;;;;;;23.57;52.51;100536.63;1666916;86;21153;-62
2022/06/26 05:14:22;;;;;;;5.15;3.67;;;;;;;23.78;52.67;100540.25;1666867;85;21093;-63
2022/06/26 05:16:53;;;;;;;5.40;3.60;;;;;;;24.03;51.79;100538.23;1666844;86;21045;-64
2022/06/26 05:19:31;;;;;;;4.95;3.90;;;;;;;24.28;51.17;100539.34;1666885;85;21061;-63
2022/06/26 05:22:02;;;;;;;4.30;3.90;;;;;;;24.53;50.32;100546.25;1666809;85;21138;-62
2022/06/26 05:24:33;;;;;;;7.62;3.98;;;;;;;24.61;49.96;100546.22;1666261;85;21069;-63
2022/06/26 05:27:02;;;;;;;11.97;4.78;;;;;;;24.68;49.84;100541.70;1662244;86;21056;-63
2022/06/26 05:29:33;;;;;;;7.17;3.92;;;;;;;24.74;49.76;100536.38;1661740;86;21038;-65
2022/06/26 05:32:02;;;;;;;6.67;3.87;;;;;;;24.89;49.79;100544.12;1662250;86;21073;-64
2022/06/26 05:34:32;;;;;;;7.80;3.80;;;;;;;25.23;48.84;100543.38;1662328;86;21457;-63
2022/06/26 05:37:03;;;;;;;5.35;3.55;;;;;;;25.53;48.05;100544.57;1662384;85;21041;-64
2022/06/26 05:39:34;;;;;;;4.50;3.87;;;;;;;25.85;46.80;100545.99;1662191;85;21073;-63
2022/06/26 05:42:05;;;;;;;6.95;3.90;;;;;;;25.96;46.38;100543.35;1662308;86;21547;-62
2022/06/26 05:44:37;;;;;;;6.55;4.40;;;;;;;26.11;46.48;100547.43;1662417;86;21127;-64
2022/06/26 05:47:07;;;;;;;5.80;3.80;;;;;;;26.38;45.84;100548.27;1662296;86;21081;-65
2022/06/26 05:49:42;;;;;;;5.55;4.03;;;;;;;26.64;45.44;100550.19;1661965;86;21018;-62
2022/06/26 05:52:19;;;;;;;9.15;4.35;;;;;;;26.89;44.57;100550.45;1648515;86;21054;-63
2022/06/26 05:54:53;;;;;;;6.85;4.15;;;;;;;27.04;43.86;100548.02;1662500;86;21010;-63
2022/06/26 05:57:39;;;;;;;6.87;4.00;;;;;;;27.11;44.08;100547.06;1662452;86;21134;-64
2022/06/26 06:00:13;;;;;;;6.28;3.85;;;;;;;27.32;43.40;100541.41;1659576;85;21121;-63
2022/06/26 06:02:47;;;;;;;4.92;3.72;;;;;;;27.61;42.87;100549.69;1662552;86;21081;-61
2022/06/26 06:05:18;;;;;;;8.03;4.22;;;;;;;27.75;42.83;100545.50;1662208;85;21073;-62
2022/06/26 06:07:47;;;;;;;6.35;4.10;;;;;;;27.88;42.28;100548.09;1662345;86;21073;-64
2022/06/26 06:10:19;;;;;;;5.87;3.98;;;;;;;28.03;42.36;100551.49;1662359;85;21046;-63
2022/06/26 06:12:50;;;;;;;5.22;3.83;;;;;;;28.25;41.61;100551.39;1662676;86;21108;-63
2022/06/26 06:15:20;;;;;;;8.15;4.08;;;;;;;28.43;41.36;100546.23;1662311;86;21081;-62
2022/06/26 06:17:49;;;;;;;5.83;4.00;;;;;;;28.76;40.60;100547.53;1659701;86;21089;-63
2022/06/26 06:20:28;;;;;;;9.65;4.37;;;;;;;28.76;40.60;100547.53;1662358;86;21494;-64
2022/06/26 06:23:06;;;;;;;9.18;4.03;;;;;;;28.88;40.24;100557.16;1662156;86;21089;-64
2022/06/26 06:25:35;;;;;;;9.08;3.90;;;;;;;29.00;39.71;100553.78;1662358;84;21069;-63
2022/06/26 06:28:06;;;;;;;7.87;3.65;;;;;;;29.14;39.52;100558.81;1662478;86;21157;-63
2022/06/26 06:30:37;;;;;;;6.58;3.60;;;;;;;29.26;39.32;100557.70;1662513;86;21042;-63
2022/06/26 06:33:07;;;;;;;4.22;3.65;;;;;;;29.41;38.92;100562.73;1662323;86;21073;-65
2022/06/26 06:35:42;;;;;;;5.70;3.70;;;;;;;29.55;38.62;100560.13;1662587;85;21144;-63
2022/06/26 06:38:12;;;;;;;5.30;3.90;;;;;;;29.74;38.43;100562.75;1662544;86;21034;-64
2022/06/26 06:40:43;;;;;;;3.80;3.40;;;;;;;29.99;38.09;100561.28;1662472;86;21089;-63
2022/06/26 06:43:13;;;;;;;5.08;3.35;;;;;;;30.16;37.69;100559.98;1638313;86;21119;-63
2022/06/26 06:46:00;;;;;;;7.28;3.50;;;;;;;30.29;37.34;100563.88;1662521;86;21014;-63
2022/06/26 06:48:30;;;;;;;7.70;3.30;;;;;;;30.42;37.10;100560.09;1662477;86;21019;-63
2022/06/26 06:51:13;;;;;;;5.42;3.83;;;;;;;30.57;36.87;100563.09;1646960;86;21058;-63
2022/06/26 06:53:43;;;;;;;5.97;3.65;;;;;;;30.62;36.89;100566.38;1662242;86;21053;-62
2022/06/26 06:56:12;;;;;;;8.23;3.40;;;;;;;30.64;36.76;100567.73;1662484;85;21071;-63
2022/06/26 06:58:41;;;;;;;4.87;3.45;;;;;;;30.72;36.38;100557.59;1662295;85;21046;-63
2022/06/26 07:01:10;;;;;;;3.67;3.05;;;;;;;30.77;36.54;100563.09;1662349;86;21026;-62
2022/06/26 07:03:39;;;;;;;5.53;3.15;;;;;;;30.71;36.47;100565.83;1662453;86;21140;-63
2022/06/26 07:06:09;;;;;;;7.70;3.17;;;;;;;30.74;36.66;100561.76;1662280;86;21538;-63
2022/06/26 07:08:37;;;;;;;5.22;3.15;;;;;;;30.85;36.54;100573.60;1662249;86;21014;-63
2022/06/26 07:11:08;;;;;;;4.83;3.20;;;;;;;30.87;36.72;100562.78;1662175;85;21450;-63
2022/06/26 07:13:38;;;;;;;6.65;3.62;;;;;;;31.03;36.55;100571.64;1662259;85;21496;-64
2022/06/26 07:16:08;;;;;;;5.00;3.30;;;;;;;31.16;36.29;100560.77;1662256;85;21005;-63
2022/06/26 07:18:37;;;;;;;5.90;3.35;;;;;;;31.21;35.65;100573.35;1662287;85;21595;-62
2022/06/26 07:21:07;;;;;;;7.47;3.10;;;;;;;30.97;35.81;100578.62;1659542;85;21065;-63
2022/06/26 07:23:39;;;;;;;4.30;3.00;;;;;;;30.74;35.75;100568.00;1662411;86;21466;-64
2022/06/26 07:26:10;;;;;;;7.53;3.40;;;;;;;30.46;35.93;100564.52;1664308;85;21514;-63
2022/06/26 07:28:41;;;;;;;4.10;2.85;;;;;;;30.15;36.62;100564.55;1666824;86;21062;-63
2022/06/26 07:31:10;;;;;;;3.72;3.08;;;;;;;29.83;37.26;100562.23;1666845;86;21065;-63
2022/06/26 07:36:28;;;;;;;6.33;2.85;;;;;;;29.50;38.01;100558.84;1660845;85;21065;-63
2022/06/26 07:38:58;;;;;;;9.65;3.83;;;;;;;29.52;38.07;100551.47;1666770;85;21013;-63
2022/06/26 07:41:29;;;;;;;6.40;3.02;;;;;;;29.45;37.97;100546.27;1667058;86;21045;-63
2022/06/26 07:44:02;;;;;;;3.50;2.90;;;;;;;29.41;37.75;100544.38;1667130;85;21112;-64
2022/06/26 07:46:31;;;;;;;5.03;2.98;;;;;;;29.40;38.01;100546.36;1660614;85;21034;-63
2022/06/26 07:49:02;;;;;;;4.78;2.62;;;;;;;29.46;38.28;100542.87;1667068;86;21053;-64
2022/06/26 07:51:33;;;;;;;3.42;2.47;;;;;;;29.51;37.64;100539.92;1667141;85;21487;-64
2022/06/26 07:54:02;;;;;;;3.40;2.40;;;;;;;29.53;37.38;100537.60;1667175;85;21438;-64
2022/06/26 07:56:31;;;;;;;6.20;2.83;;;;;;;29.50;37.82;100545.30;1667120;85;21482;-63
2022/06/26 07:59:00;;;;;;;3.83;2.55;;;;;;;29.40;37.77;100540.72;1666788;86;21089;-63
2022/06/26 08:01:30;;;;;;;2.90;2.50;;;;;;;29.31;38.02;100543.47;1666916;86;21049;-63
2022/06/26 08:04:00;;;;;;;4.05;2.30;;;;;;;29.35;37.92;100542.25;1666944;85;21457;-64
2022/06/26 08:06:29;;;;;;;3.05;2.27;;;;;;;29.46;36.49;100547.10;1666831;86;21494;-65
2022/06/26 08:09:01;;;;;;;3.25;1.85;;;;;;;29.39;35.67;100544.70;1667068;86;21469;-63
2022/06/26 08:11:30;;;;;;;3.00;1.87;;;;;;;29.35;34.41;100562.85;1666763;86;21041;-64
2022/06/26 08:14:00;;;;;;;11.40;2.10;;;;;;;29.26;33.93;100555.43;1666981;86;21001;-65
2022/06/26 08:16:31;;;;;;;2.87;1.82;;;;;;;29.53;33.24;100546.91;1666906;85;21515;-62
2022/06/26 08:19:00;;;;;;;7.08;5.60;;;;;;;29.53;33.24;100546.91;1666874;86;21093;-63
2022/06/26 08:24:20;;;;;;;2.22;2.00;;;;;;;29.89;32.08;100568.00;1665918;84;21100;-62
2022/06/26 08:26:49;;;;;;;3.30;2.20;;;;;;;29.94;31.77;100567.06;1664149;86;21135;-69
2022/06/26 08:29:17;;;;;;;5.28;2.10;;;;;;;29.87;32.25;100553.95;1663058;86;21080;-68
2022/06/26 08:31:46;;;;;;;3.85;2.33;;;;;;;30.02;32.36;100555.59;1668315;86;21060;-62
2022/06/26 08:34:15;;;;;;;3.50;1.98;;;;;;;30.14;32.01;100551.58;1662748;84;21086;-68
2022/06/26 08:36:44;;;;;;;5.50;2.40;;;;;;;30.29;32.11;100562.45;1664510;85;21525;-69
2022/06/26 08:39:13;;;;;;;3.87;2.20;;;;;;;30.48;31.55;100540.98;1664674;86;21106;-69
2022/06/26 08:41:45;;;;;;;4.00;2.10;;;;;;;30.68;31.52;100548.09;1665125;86;21142;-68
2022/06/26 08:44:14;;;;;;;2.60;2.10;;;;;;;30.78;31.50;100547.79;1681918;84;21078;-69
2022/06/26 08:46:44;;;;;;;2.58;2.00;;;;;;;31.03;31.51;100547.00;1687628;84;21034;-71
2022/06/26 08:49:15;;;;;;;3.37;2.10;;;;;;;31.29;31.55;100551.91;1687402;84;21098;-69
2022/06/26 08:51:47;;;;;;;3.65;2.10;;;;;;;31.62;31.20;100551.63;1679235;85;21097;-69
2022/06/26 08:54:16;;;;;;;3.52;2.12;;;;;;;31.71;30.65;100552.48;1666391;86;21479;-70
2022/06/26 08:56:46;;;;;;;4.55;2.27;;;;;;;31.60;30.02;100561.05;1666345;86;21075;-68
2022/06/26 08:59:16;;;;;;;3.42;2.20;;;;;;;31.42;29.83;100560.23;1665985;86;21564;-68
2022/06/26 09:01:47;;;;;;;2.30;2.10;;;;;;;31.42;29.44;100550.90;1666016;86;21102;-69
2022/06/26 09:04:16;;;;;;;2.87;2.15;;;;;;;31.43;29.47;100553.98;1666273;86;21116;-69
2022/06/26 09:06:45;;;;;;;5.97;2.37;;;;;;;31.48;29.43;100543.90;1666955;86;21458;-69
2022/06/26 09:09:27;;;;;;;3.83;2.33;;;;;;;31.60;29.69;100546.88;1666650;85;21145;-72
2022/06/26 09:11:59;;;;;;;6.37;2.42;;;;;;;31.72;29.73;100546.23;1662561;86;21104;-77
2022/06/26 09:14:29;;;;;;;3.80;2.50;;;;;;;31.90;29.42;100555.56;1668964;86;21100;-79
2022/06/26 09:16:58;;;;;;;3.50;2.45;;;;;;;31.97;29.40;100543.95;1668205;86;21111;-76
2022/06/26 09:19:33;;;;;;;2.95;2.40;;;;;;;31.89;29.37;100548.23;1668158;86;21103;-77
2022/06/26 09:22:10;;;;;;;4.60;2.25;;;;;;;31.70;29.68;100542.90;1668488;86;21099;-77
2022/06/26 09:24:41;;;;;;;3.83;2.40;;;;;;;31.44;30.02;100551.40;1668333;86;21075;-81
2022/06/26 09:27:13;;;;;;;3.47;2.10;;;;;;;31.11;30.47;100540.51;1639354;86;21129;-78
2022/06/26 09:29:48;;;;;;;5.75;2.10;;;;;;;30.82;31.01;100536.06;1663888;85;21120;-77
2022/06/26 09:32:17;;;;;;;2.50;2.30;;;;;;;30.69;31.29;100541.28;1663499;86;21120;-78
2022/06/26 09:34:49;;;;;;;4.05;2.30;;;;;;;30.57;31.53;100544.71;1631388;86;21108;-79
2022/06/26 09:37:22;;;;;;;5.00;2.25;;;;;;;30.38;31.45;100535.63;1635269;86;21482;-77
2022/06/26 09:40:01;;;;;;;3.55;2.20;;;;;;;30.13;31.94;100523.89;1629954;86;21575;-77
2022/06/26 09:42:33;;;;;;;4.62;2.35;;;;;;;30.04;32.20;100533.48;1637031;86;22168;-78
2022/06/26 09:45:04;;;;;;;2.50;2.30;;;;;;;29.97;31.89;100524.87;1593402;90;21095;-76
2022/06/26 09:47:35;;;;;;;5.42;2.37;;;;;;;29.89;32.04;100530.44;1572328;91;21115;-71
2022/06/26 09:50:07;;;;;;;4.67;2.60;;;;;;;29.84;32.60;100525.77;1587252;89;21061;-76
2022/06/26 09:52:37;;;;;;;3.75;2.22;;;;;;;29.80;32.95;100540.28;1595303;89;21085;-69
2022/06/26 09:55:07;;;;;;;2.60;2.40;;;;;;;29.74;33.33;100537.91;1612390;89;21137;-76
2022/06/26 09:57:37;;;;;;;3.87;2.40;;;;;;;29.71;33.23;100531.50;1612448;89;21170;-74
2022/06/26 10:00:07;;;;;;;3.55;2.27;;;;;;;29.60;33.03;100542.22;1612403;89;21086;-79
2022/06/26 10:08:09;;;;;;;3.98;2.90;;;;;;;29.24;33.46;100540.80;1565005;89;21098;-77
2022/06/26 10:10:39;;;;;;;5.00;3.52;;;;;;;29.15;33.27;100542.14;1612668;89;21070;-78
2022/06/26 10:13:09;;;;;;;4.50;2.70;;;;;;;29.08;32.80;100538.92;1574264;90;21107;-78
2022/06/26 10:16:00;;;;;;;3.10;2.45;;;;;;;29.00;33.13;100536.28;1590367;90;21059;-77
2022/06/26 10:19:05;;;;;;;2.85;2.50;;;;;;;29.00;33.32;100534.87;1587216;89;21109;-79
2022/06/26 10:21:39;;;;;;;3.17;2.42;;;;;;;29.01;33.44;100538.53;1597740;89;21114;-80
2022/06/26 10:24:08;;;;;;;3.58;2.60;;;;;;;29.02;33.09;100540.20;1571616;91;21459;-71
2022/06/26 10:26:37;;;;;;;2.92;2.40;;;;;;;29.07;33.03;100534.43;1587954;89;21130;-75
2022/06/26 10:29:09;;;;;;;3.37;2.40;;;;;;;29.14;33.18;100531.17;1588207;89;21529;-73
2022/06/26 10:31:47;;;;;;;3.77;2.58;;;;;;;29.18;33.37;100537.27;1606469;87;21086;-78
2022/06/26 10:34:20;;;;;;;3.47;2.52;;;;;;;29.23;33.40;100527.84;1610989;89;21113;-70
2022/06/26 10:37:10;;;;;;;5.12;2.30;;;;;;;29.27;33.39;100529.74;1612723;89;21078;-73
2022/06/26 10:39:53;;;;;;;2.95;2.65;;;;;;;29.34;33.42;100535.77;1608089;88;21139;-76
2022/06/26 10:45:21;;;;;;;4.47;2.50;;;;;;;29.21;34.09;100536.63;1620018;87;21146;-75
2022/06/26 10:47:52;;;;;;;6.42;2.72;;;;;;;29.21;34.09;100536.63;1603916;87;21476;-77
2022/06/26 10:50:41;;;;;;;3.20;2.60;;;;;;;29.05;34.53;100536.73;1632340;87;21100;-76
2022/06/26 10:53:32;;;;;;;3.05;2.42;;;;;;;28.93;34.91;100533.64;1587406;90;21109;-77
2022/06/26 10:56:05;;;;;;;3.35;2.70;;;;;;;28.85;35.29;100536.63;1631940;86;21029;-66
2022/06/26 10:58:41;;;;;;;3.47;2.40;;;;;;;28.73;35.40;100534.32;1615938;88;21114;-71
2022/06/26 11:01:11;;;;;;;3.10;2.23;;;;;;;28.66;35.39;100528.27;1612744;88;21078;-71
2022/06/26 11:03:41;;;;;;;5.33;2.83;;;;;;;28.62;35.65;100532.04;1612622;89;21150;-69
2022/06/26 11:06:14;;;;;;;5.50;2.87;;;;;;;28.66;35.72;100524.05;1612371;89;21047;-70
2022/06/26 11:08:50;;;;;;;3.60;2.98;;;;;;;28.74;35.68;100523.88;1612700;88;21173;-67
2022/06/26 11:11:25;;;;;;;3.12;2.83;;;;;;;28.81;35.24;100526.27;1612412;89;21106;-69
2022/06/26 11:13:57;;;;;;;4.50;3.10;;;;;;;28.81;35.15;100534.16;1612552;89;21109;-69
2022/06/26 11:16:46;;;;;;;2.85;2.60;;;;;;;28.84;35.28;100531.30;1614288;87;21049;-69
2022/06/26 11:19:26;;;;;;;2.83;2.52;;;;;;;28.97;35.21;100519.16;1614403;88;21131;-74
2022/06/26 11:22:09;;;;;;;7.45;3.02;;;;;;;29.13;35.03;100519.63;1610482;88;21104;-77
2022/06/26 11:24:51;;;;;;;3.27;2.60;;;;;;;29.21;34.86;100529.58;1576577;90;21075;-79
2022/06/26 11:27:23;;;;;;;12.98;4.05;;;;;;;29.25;34.76;100531.18;1589814;88;21099;-73
2022/06/26 11:29:52;;;;;;;5.28;2.52;;;;;;;29.19;34.29;100527.65;1600688;88;21082;-79
2022/06/26 11:32:24;;;;;;;2.87;2.50;;;;;;;29.18;33.83;100517.52;1601096;88;21510;-69
2022/06/26 11:34:55;;;;;;;3.52;2.50;;;;;;;29.12;33.75;100523.02;1588672;90;21071;-80
2022/06/26 11:37:37;;;;;;;4.22;2.70;;;;;;;29.04;34.23;100507.69;1582591;90;21134;-79
2022/06/26 11:40:16;;;;;;;4.00;2.25;;;;;;;29.07;34.35;100511.02;1556550;91;21123;-80
2022/06/26 11:42:46;;;;;;;2.30;2.10;;;;;;;29.09;34.26;100514.36;1595204;87;21078;-79
2022/06/26 11:45:24;;;;;;;6.08;4.67;;;;;;;29.08;34.04;100514.10;1645699;87;21038;-77
2022/06/26 11:47:53;;;;;;;3.52;2.70;;;;;;;29.02;34.21;100519.03;1668173;85;21186;-78
2022/06/26 11:50:24;;;;;;;2.67;2.10;;;;;;;29.01;34.44;100531.47;1667250;85;21144;-77
2022/06/26 11:52:54;;;;;;;3.05;2.25;;;;;;;28.96;34.26;100524.53;1668130;85;21100;-75
2022/06/26 11:55:24;;;;;;;2.20;2.00;;;;;;;28.86;34.50;100517.72;1667979;85;21073;-79
2022/06/26 11:57:55;;;;;;;4.10;2.30;;;;;;;28.80;34.72;100523.19;1667977;85;21086;-73
2022/06/26 12:00:24;;;;;;;3.08;2.30;;;;;;;28.77;35.12;100530.88;1667830;86;21164;-76